createdAt,value
2023-10-13T00:00:06.949Z,7.1
2023-10-13T00:05:06.097Z,8.4
2023-10-13T00:10:06.992Z,8.3
2023-10-13T00:15:06.680Z,8.2
2023-10-13T00:20:06.370Z,8.4
2023-10-13T00:25:06.202Z,7.3
2023-10-13T00:30:06.917Z,8.5
2023-10-13T00:35:06.557Z,7
2023-10-13T00:40:06.343Z,8.8
2023-10-13T00:45:07.109Z,8.3
2023-10-13T00:50:06.903Z,8.9
2023-10-13T00:55:06.624Z,7.3
2023-10-13T01:00:06.450Z,8.5
2023-10-13T01:05:06.744Z,9.4
2023-10-13T01:10:06.568Z,7.8
2023-10-13T01:15:06.437Z,7.7
2023-10-13T01:20:07.066Z,6.2
2023-10-13T01:25:06.771Z,8
2023-10-13T01:30:06.535Z,8.4
2023-10-13T01:35:06.408Z,8.1
2023-10-13T01:40:06.151Z,7.8
2023-10-13T01:45:06.894Z,7.8
2023-10-13T01:50:06.704Z,8.7
2023-10-13T01:55:06.766Z,7
2023-10-13T02:00:06.617Z,8.4
2023-10-13T02:05:06.765Z,8.6
2023-10-13T02:10:06.511Z,6.5
2023-10-13T02:15:06.307Z,7
2023-10-13T02:20:06.131Z,8
2023-10-13T02:25:06.867Z,8.6
2023-10-13T02:30:06.609Z,7.5
2023-10-13T02:35:06.570Z,7.7
2023-10-13T02:40:06.403Z,6.8
2023-10-13T02:45:06.920Z,7.8
2023-10-13T02:50:06.626Z,7.8
2023-10-13T02:55:06.277Z,6.9
2023-10-13T03:00:07.099Z,6
2023-10-13T03:05:06.348Z,7.7
2023-10-13T03:10:07.063Z,8.4
2023-10-13T03:15:06.811Z,6.7
2023-10-13T03:20:06.507Z,6.9
2023-10-13T03:25:06.201Z,6.7
2023-10-13T03:30:07.083Z,8.8
2023-10-13T03:35:06.778Z,10.9
2023-10-13T03:40:06.555Z,6.4
2023-10-13T03:45:06.335Z,8.3
2023-10-13T03:50:07.082Z,14.5
2023-10-13T03:55:06.848Z,10.3
2023-10-13T04:00:06.673Z,16.6
2023-10-13T04:05:06.934Z,14.5
2023-10-13T04:10:06.605Z,7.8
2023-10-13T04:15:06.473Z,8.3
2023-10-13T04:20:06.296Z,9.1
2023-10-13T04:25:07.046Z,8
2023-10-13T04:30:06.803Z,6.5
2023-10-13T04:35:06.139Z,6.8
2023-10-13T04:40:06.919Z,7.8
2023-10-13T04:45:06.804Z,8.7
2023-10-13T04:50:06.605Z,8.4
2023-10-13T04:55:06.388Z,6.6
2023-10-13T05:00:06.255Z,9
2023-10-13T05:05:06.667Z,9.6
2023-10-13T05:10:06.870Z,8.4
2023-10-13T05:15:06.492Z,8.2
2023-10-13T05:20:06.279Z,8.9
2023-10-13T05:25:07.117Z,8.3
2023-10-13T05:30:06.909Z,9.4
2023-10-13T05:35:06.775Z,7.8
2023-10-13T05:40:06.646Z,10.9
2023-10-13T05:45:06.371Z,9.2
2023-10-13T05:50:06.865Z,8.8
2023-10-13T05:55:06.538Z,10.4
2023-10-13T06:00:06.389Z,11.6
2023-10-13T06:05:06.302Z,12.4
2023-10-13T06:10:07.144Z,10.5
2023-10-13T06:15:06.790Z,12.5
2023-10-13T06:20:06.261Z,10.1
2023-10-13T06:25:06.975Z,8.8
2023-10-13T06:30:06.669Z,7.9
2023-10-13T06:35:06.378Z,9.1
2023-10-13T06:40:06.132Z,9.2
2023-10-13T06:45:06.845Z,8.9
2023-10-13T06:50:06.707Z,10.1
2023-10-13T06:55:06.437Z,11.4
2023-10-13T07:00:06.575Z,12.6
2023-10-13T07:05:06.815Z,10.4
2023-10-13T07:10:06.613Z,9.7
2023-10-13T07:15:06.392Z,8.5
2023-10-13T07:20:07.073Z,9.2
2023-10-13T07:25:06.720Z,6.7
2023-10-13T07:30:06.474Z,8
2023-10-13T07:35:06.275Z,8.7
2023-10-13T07:40:06.984Z,7.3
2023-10-13T07:45:06.787Z,7.4
2023-10-13T07:50:06.223Z,6.8
2023-10-13T07:55:06.950Z,7.2
2023-10-13T08:00:06.787Z,6.4
2023-10-13T08:05:07.022Z,7
2023-10-13T08:10:06.871Z,8.5
2023-10-13T08:15:07.058Z,7.6
2023-10-13T08:20:06.836Z,7.3
2023-10-13T08:25:06.111Z,8.1
2023-10-13T08:30:06.834Z,7.3
2023-10-13T08:35:06.615Z,7.1
2023-10-13T08:40:06.825Z,10.3
2023-10-13T08:45:06.507Z,9.8
2023-10-13T08:50:06.485Z,9.1
2023-10-13T08:55:06.275Z,8.1
2023-10-13T09:00:07.117Z,7.6
2023-10-13T09:05:06.397Z,8
2023-10-13T09:10:06.122Z,9
2023-10-13T09:15:06.912Z,8.7
2023-10-13T09:20:06.608Z,9.5
2023-10-13T09:25:06.340Z,9.4
2023-10-13T09:30:06.238Z,11.7
2023-10-13T09:35:06.087Z,8.7
2023-10-13T09:40:06.956Z,8.7
2023-10-13T09:45:06.760Z,14.5
2023-10-13T09:50:07.062Z,8.4
2023-10-13T09:55:06.532Z,11.6
2023-10-13T10:00:07.113Z,10.7
2023-10-13T10:05:06.417Z,10.9
2023-10-13T10:10:06.152Z,9.9
2023-10-13T10:15:06.315Z,9.4
2023-10-13T10:20:07.093Z,11.3
2023-10-13T10:25:06.784Z,10.9
2023-10-13T10:30:06.712Z,11
2023-10-13T10:35:07.051Z,12.7
2023-10-13T10:40:06.765Z,13.7
2023-10-13T10:45:06.569Z,10.7
2023-10-13T10:50:06.230Z,10.6
2023-10-13T10:55:06.984Z,13.5
2023-10-13T11:00:06.751Z,11
2023-10-13T11:05:06.942Z,11.5
2023-10-13T11:10:06.412Z,11.8
2023-10-13T11:15:06.127Z,11.4
2023-10-13T11:20:06.474Z,7.6
2023-10-13T11:25:06.997Z,8.5
2023-10-13T11:30:06.770Z,10.3
2023-10-13T11:35:06.500Z,9.9
2023-10-13T11:40:06.254Z,9.1
2023-10-13T11:45:06.977Z,10.3
2023-10-13T11:50:06.732Z,7.8
2023-10-13T11:55:06.453Z,10.3
2023-10-13T12:00:06.226Z,7.8
2023-10-13T12:05:06.593Z,8.7
2023-10-13T12:10:06.363Z,8.1
2023-10-13T12:15:06.101Z,10.3
2023-10-13T12:20:06.831Z,8.6
2023-10-13T12:25:06.563Z,9
2023-10-13T12:30:06.526Z,10.5
2023-10-13T12:35:06.194Z,9.7
2023-10-13T12:40:06.973Z,10
2023-10-13T12:45:06.873Z,9.7
2023-10-13T12:50:06.677Z,9.3
2023-10-13T12:55:06.378Z,9.4
2023-10-13T13:00:07.111Z,10.1
2023-10-13T13:05:06.379Z,11.2
2023-10-13T13:10:06.122Z,9.7
2023-10-13T13:15:07.000Z,9.4
2023-10-13T13:20:06.595Z,8.3
2023-10-13T13:25:06.240Z,7.9
2023-10-13T13:30:06.958Z,5.5
2023-10-13T13:35:06.624Z,6
2023-10-13T13:40:06.458Z,7.9
2023-10-13T13:45:06.193Z,6.2
2023-10-13T13:50:06.971Z,6
2023-10-13T13:55:07.069Z,8
2023-10-13T14:00:06.980Z,8.5
2023-10-13T14:05:06.703Z,9.1
2023-10-13T14:10:06.453Z,11
2023-10-13T14:15:07.045Z,10
2023-10-13T14:20:06.748Z,15.5
2023-10-13T14:25:06.346Z,19.3
2023-10-13T14:30:06.128Z,20.3
2023-10-13T14:35:06.815Z,17.6
2023-10-13T14:40:06.335Z,12.9
2023-10-13T14:45:06.988Z,10.7
2023-10-13T14:50:06.898Z,7.6
2023-10-13T14:55:06.571Z,6.5
2023-10-13T15:00:06.331Z,6.2
2023-10-13T15:05:06.609Z,8
2023-10-13T15:10:06.425Z,7.3
2023-10-13T15:15:06.321Z,8.6
2023-10-13T15:20:07.013Z,8.8
2023-10-13T15:25:06.381Z,7.8
2023-10-13T15:30:06.654Z,7.9
2023-10-13T15:35:06.408Z,8.3
2023-10-13T15:40:06.118Z,7.2
2023-10-13T15:45:06.907Z,8.2
2023-10-13T15:50:06.614Z,10.4
2023-10-13T15:55:06.311Z,8.7
2023-10-13T16:00:07.148Z,9.7
2023-10-13T16:05:06.623Z,7.5
2023-10-13T16:10:06.365Z,10.5
2023-10-13T16:15:06.103Z,10.5
2023-10-13T16:20:06.667Z,11.7
2023-10-13T16:25:06.782Z,10.9
2023-10-13T16:30:06.689Z,12.5
2023-10-13T16:35:06.434Z,14.9
2023-10-13T16:40:06.305Z,15.1
2023-10-13T16:45:06.097Z,12.6
2023-10-13T16:50:06.833Z,13.5
2023-10-13T16:55:06.615Z,17.1
2023-10-13T17:00:06.422Z,17.5
2023-10-13T17:05:06.587Z,17.3
2023-10-13T17:10:07.071Z,17.1
2023-10-13T17:15:07.004Z,29.3
2023-10-13T17:20:06.669Z,15.2
2023-10-13T17:25:06.360Z,13.4
2023-10-13T17:30:06.200Z,13.8
2023-10-13T17:35:06.943Z,16.5
2023-10-13T17:40:06.735Z,14.8
2023-10-13T17:45:06.763Z,14.1
2023-10-13T17:50:06.485Z,14.2
2023-10-13T17:55:06.088Z,18.4
2023-10-13T18:00:06.777Z,12.9
2023-10-13T18:05:07.068Z,12.8
2023-10-13T18:10:06.908Z,13.8
2023-10-13T18:15:06.722Z,15.8
2023-10-13T18:20:06.614Z,15.4
2023-10-13T18:25:06.329Z,14.4
2023-10-13T18:30:06.162Z,14.3
2023-10-13T18:35:06.827Z,14.8
2023-10-13T18:40:06.506Z,18.1
2023-10-13T18:45:06.307Z,20.7
2023-10-13T18:50:07.035Z,14.8
2023-10-13T18:55:06.770Z,17.5
2023-10-13T19:00:06.543Z,26.7
2023-10-13T19:05:06.742Z,24.7
2023-10-13T19:10:06.583Z,16.6
2023-10-13T19:15:06.340Z,16.3
2023-10-13T19:20:06.388Z,21.4
2023-10-13T19:25:06.338Z,19.3
2023-10-13T19:30:07.012Z,18.3
2023-10-13T19:35:06.677Z,19
2023-10-13T19:40:06.207Z,16.1
2023-10-13T19:45:06.840Z,15.8
2023-10-13T19:50:06.665Z,15.1
2023-10-13T19:55:06.405Z,21.9
2023-10-13T20:00:06.500Z,20.2
2023-10-13T20:05:06.393Z,18.7
2023-10-13T20:10:06.318Z,14.2
2023-10-13T20:15:07.022Z,13.9
2023-10-13T20:20:06.698Z,17
2023-10-13T20:25:06.485Z,18.4
2023-10-13T20:30:06.222Z,15.7
2023-10-13T20:35:06.840Z,14.7
2023-10-13T20:40:06.642Z,13.9
2023-10-13T20:45:06.305Z,13.6
2023-10-13T20:50:06.675Z,14.5
2023-10-13T20:55:06.415Z,24.4
2023-10-13T21:00:06.169Z,16.5
2023-10-13T21:05:06.480Z,15.1
2023-10-13T21:10:06.348Z,13.9
2023-10-13T21:15:06.988Z,14.2
2023-10-13T21:20:06.140Z,16.1
2023-10-13T21:25:06.864Z,11.4
2023-10-13T21:30:06.592Z,11.5
2023-10-13T21:35:06.270Z,10.6
2023-10-13T21:40:07.009Z,9.7
2023-10-13T21:45:06.804Z,12.5
2023-10-13T21:50:06.822Z,12.4
2023-10-13T21:55:06.565Z,8.9
2023-10-13T22:00:06.383Z,13.6
2023-10-13T22:05:06.598Z,12.6
2023-10-13T22:10:06.341Z,11.8
2023-10-13T22:15:07.084Z,10.6
2023-10-13T22:20:06.769Z,11.1
2023-10-13T22:25:06.513Z,9.8
2023-10-13T22:30:06.188Z,8.9
2023-10-13T22:35:06.096Z,10.5
2023-10-13T22:40:06.806Z,10.4
2023-10-13T22:45:06.528Z,10.3
2023-10-13T22:50:06.455Z,8.6
2023-10-13T22:55:06.221Z,7.5
2023-10-13T23:00:06.276Z,8.9
2023-10-13T23:05:07.516Z,9.1
2023-10-13T23:10:06.874Z,8.8
2023-10-13T23:15:06.600Z,9.8
2023-10-13T23:20:06.461Z,8.3
2023-10-13T23:25:06.189Z,8.8
2023-10-13T23:30:06.897Z,11.7
2023-10-13T23:35:06.582Z,10.7
2023-10-13T23:40:06.396Z,9.7
2023-10-13T23:45:06.147Z,8.6
2023-10-13T23:50:06.894Z,7.9
2023-10-13T23:55:06.588Z,9.2
